createdAt,value
2018-05-03T18:52:46.076Z,32
2018-05-03T18:54:47.514Z,28
2018-05-03T18:56:48.916Z,24
2018-05-03T18:58:50.339Z,20
2018-05-03T19:00:51.845Z,16
2018-05-03T19:02:53.254Z,12
2018-05-03T19:04:54.734Z,12
2018-05-03T19:06:56.125Z,8
2018-05-03T19:08:57.622Z,4
2018-05-03T19:10:59.033Z,8
2018-05-03T19:13:00.478Z,4
2018-05-03T19:15:01.875Z,4
2018-05-03T19:17:03.294Z,0
2018-05-03T19:19:04.824Z,0
2018-05-03T19:21:06.240Z,0
2018-05-03T19:23:07.659Z,0
2018-05-03T19:25:09.079Z,0
2018-05-03T19:27:10.501Z,0
2018-05-03T19:29:11.924Z,0
2018-05-03T19:31:13.343Z,0
2018-05-03T19:33:14.764Z,0
2018-05-03T19:35:16.187Z,0
2018-05-03T19:37:17.611Z,0
2018-05-03T19:39:19.029Z,0
2018-05-03T19:41:20.455Z,0
2018-05-03T19:43:21.944Z,0
2018-05-03T19:45:23.299Z,0
2018-05-03T19:47:24.716Z,0
2018-05-03T19:49:26.141Z,0
2018-05-03T19:51:27.561Z,0
2018-05-03T19:53:28.985Z,0
2018-05-03T19:55:30.409Z,0
2018-05-03T19:57:31.835Z,0
2018-05-03T19:59:33.253Z,0
2018-05-03T20:01:34.672Z,0
2018-05-03T20:03:36.168Z,0
2018-05-03T20:05:37.509Z,0
2018-05-03T20:07:38.932Z,0
2018-05-03T20:09:40.356Z,0
2018-05-03T20:11:41.775Z,0
2018-05-03T20:13:43.235Z,0
2018-05-03T20:15:44.646Z,0
2018-05-03T20:17:46.065Z,0
2018-05-03T20:19:47.486Z,0
2018-05-03T20:21:48.922Z,0
2018-05-03T20:23:50.331Z,0
2018-05-03T20:25:51.754Z,0
2018-05-03T20:27:53.176Z,0
2018-05-03T20:29:54.594Z,0
2018-05-03T20:31:56.015Z,0
2018-05-03T20:33:57.436Z,0
2018-05-03T20:35:58.852Z,0
2018-05-03T20:38:00.270Z,0
2018-05-03T20:40:01.693Z,0
2018-05-03T20:42:03.116Z,0
2018-05-03T20:44:04.531Z,0
2018-05-03T20:46:06.030Z,0
2018-05-03T20:48:07.374Z,0
2018-05-03T20:50:08.793Z,0
2018-05-03T20:52:10.213Z,0
2018-05-03T20:54:11.631Z,0
2018-05-03T20:56:13.143Z,0
2018-05-03T20:58:14.563Z,0
2018-05-03T21:00:15.996Z,0
2018-05-03T21:02:17.404Z,0
2018-05-03T21:04:18.821Z,0
2018-05-03T21:06:20.243Z,0
2018-05-03T21:08:21.672Z,0
2018-05-03T21:10:23.083Z,0
2018-05-03T21:12:24.505Z,0
2018-05-03T21:14:25.927Z,0
2018-05-03T21:16:27.345Z,0
2018-05-03T21:18:28.770Z,0
2018-05-03T21:20:30.193Z,0
2018-05-03T21:22:31.614Z,0
2018-05-03T21:24:33.031Z,0
2018-05-03T21:26:34.454Z,0
2018-05-03T21:28:35.943Z,0
2018-05-03T21:30:37.289Z,0
2018-05-03T21:32:38.714Z,0
2018-05-03T21:34:40.144Z,0
2018-05-03T21:36:41.552Z,0
2018-05-03T21:38:42.981Z,0
2018-05-03T21:40:44.398Z,0
2018-05-03T21:42:45.819Z,0
2018-05-03T21:44:47.231Z,0
2018-05-03T21:46:48.651Z,0
2018-05-03T21:48:50.067Z,0
2018-05-03T21:50:51.500Z,0
2018-05-03T21:52:52.901Z,0
2018-05-03T21:54:54.320Z,0
2018-05-03T21:56:55.738Z,0
2018-05-03T21:58:57.157Z,0
2018-05-03T22:00:58.578Z,0
2018-05-03T22:02:59.996Z,0
2018-05-03T22:05:01.415Z,0
2018-05-03T22:07:02.849Z,0
2018-05-03T22:09:04.249Z,0
2018-05-03T22:11:05.669Z,0
2018-05-03T22:13:07.090Z,0
2018-05-03T22:15:08.510Z,0
2018-05-03T22:17:09.919Z,0
2018-05-03T22:19:11.339Z,0
2018-05-03T22:21:12.757Z,0
2018-05-03T22:23:14.177Z,0
2018-05-03T22:25:15.605Z,0
2018-05-03T22:27:17.022Z,0
2018-05-03T22:29:18.439Z,0
2018-05-03T22:31:19.861Z,0
2018-05-03T22:33:21.275Z,0
2018-05-03T22:35:22.691Z,0
2018-05-03T22:37:24.110Z,0
2018-05-03T22:39:25.527Z,0
2018-05-03T22:41:26.950Z,0
2018-05-03T22:43:28.366Z,0
2018-05-03T22:45:29.781Z,0
2018-05-03T22:47:31.197Z,0
2018-05-03T22:49:32.616Z,0
2018-05-03T22:51:34.035Z,0
2018-05-03T22:53:35.454Z,0
2018-05-03T22:55:36.873Z,0
2018-05-03T22:57:38.288Z,0
2018-05-03T22:59:39.727Z,0
2018-05-03T23:01:41.131Z,0
2018-05-03T23:03:42.550Z,0
2018-05-03T23:05:43.968Z,0
2018-05-03T23:07:45.384Z,0
2018-05-03T23:09:46.802Z,0
2018-05-03T23:11:48.219Z,0
2018-05-03T23:13:49.638Z,0
2018-05-03T23:15:51.049Z,0
2018-05-03T23:17:52.464Z,0
2018-05-03T23:19:53.880Z,0
2018-05-03T23:21:55.298Z,0
2018-05-03T23:23:56.716Z,0
2018-05-03T23:25:58.130Z,0
2018-05-03T23:27:59.545Z,0
2018-05-03T23:30:00.961Z,0
2018-05-03T23:32:02.378Z,0
2018-05-03T23:34:03.792Z,0
2018-05-03T23:36:05.206Z,0
2018-05-03T23:38:06.625Z,0
2018-05-03T23:40:08.048Z,0
2018-05-03T23:42:09.457Z,0
2018-05-03T23:44:10.873Z,0
2018-05-03T23:46:12.290Z,0
2018-05-03T23:48:13.701Z,0
2018-05-03T23:50:15.123Z,0
2018-05-03T23:52:16.542Z,0
2018-05-03T23:54:17.959Z,0
2018-05-03T23:56:19.378Z,0
2018-05-03T23:58:20.799Z,0
